sensor_id;sensor_type;location;lat;lon;timestamp;pressure;altitude;pressure_sealevel;temperature;humidity
71573;BME280;59408;51.032;9.410;2022-10-28T00:00:25;99685.69;;;10.49;100.00
71573;BME280;59408;51.032;9.410;2022-10-28T00:02:52;99699.19;;;10.46;100.00
71573;BME280;59408;51.032;9.410;2022-10-28T00:05:20;99704.28;;;10.39;100.00
71573;BME280;59408;51.032;9.410;2022-10-28T00:07:47;99696.78;;;10.36;100.00
71573;BME280;59408;51.032;9.410;2022-10-28T00:10:13;99692.56;;;10.30;100.00
71573;BME280;59408;51.032;9.410;2022-10-28T00:12:40;99696.78;;;10.27;100.00
71573;BME280;59408;51.032;9.410;2022-10-28T00:15:07;99696.78;;;10.27;100.00
71573;BME280;59408;51.032;9.410;2022-10-28T00:17:34;99702.69;;;10.29;100.00
71573;BME280;59408;51.032;9.410;2022-10-28T00:20:00;99720.66;;;10.30;100.00
71573;BME280;59408;51.032;9.410;2022-10-28T00:22:28;99715.69;;;10.32;100.00
71573;BME280;59408;51.032;9.410;2022-10-28T00:24:55;99712.47;;;10.30;100.00
71573;BME280;59408;51.032;9.410;2022-10-28T00:27:21;99696.78;;;10.27;100.00
71573;BME280;59408;51.032;9.410;2022-10-28T00:29:48;99693.72;;;10.29;100.00
71573;BME280;59408;51.032;9.410;2022-10-28T00:32:14;99699.94;;;10.29;100.00
71573;BME280;59408;51.032;9.410;2022-10-28T00:34:41;99705.25;;;10.34;100.00
71573;BME280;59408;51.032;9.410;2022-10-28T00:37:08;99693.38;;;10.39;100.00
71573;BME280;59408;51.032;9.410;2022-10-28T00:39:36;99694.19;;;10.39;100.00
71573;BME280;59408;51.032;9.410;2022-10-28T00:42:03;99681.84;;;10.42;100.00
71573;BME280;59408;51.032;9.410;2022-10-28T00:44:46;99671.91;;;10.46;100.00
71573;BME280;59408;51.032;9.410;2022-10-28T00:47:17;99668.06;;;10.47;100.00
71573;BME280;59408;51.032;9.410;2022-10-28T00:49:48;99671.41;;;10.52;100.00
71573;BME280;59408;51.032;9.410;2022-10-28T00:52:19;99671.88;;;10.54;100.00
71573;BME280;59408;51.032;9.410;2022-10-28T00:54:49;99671.88;;;10.54;100.00
71573;BME280;59408;51.032;9.410;2022-10-28T00:57:19;99666.44;;;10.54;100.00
71573;BME280;59408;51.032;9.410;2022-10-28T00:59:49;99667.38;;;10.58;100.00
71573;BME280;59408;51.032;9.410;2022-10-28T01:02:17;99674.75;;;10.58;100.00
71573;BME280;59408;51.032;9.410;2022-10-28T01:04:45;99677.16;;;10.59;100.00
71573;BME280;59408;51.032;9.410;2022-10-28T01:07:12;99666.88;;;10.56;100.00
71573;BME280;59408;51.032;9.410;2022-10-28T01:09:40;99675.72;;;10.62;100.00
71573;BME280;59408;51.032;9.410;2022-10-28T01:12:15;99673.47;;;10.64;100.00
71573;BME280;59408;51.032;9.410;2022-10-28T01:14:58;99676.22;;;10.64;100.00
71573;BME280;59408;51.032;9.410;2022-10-28T01:17:37;99678.94;;;10.73;100.00
71573;BME280;59408;51.032;9.410;2022-10-28T01:20:37;99681.16;;;10.71;100.00
71573;BME280;59408;51.032;9.410;2022-10-28T01:23:21;99681.97;;;10.71;100.00
71573;BME280;59408;51.032;9.410;2022-10-28T01:29:05;99675.53;;;10.67;100.00
71573;BME280;59408;51.032;9.410;2022-10-28T01:31:43;99666.09;;;10.65;100.00
71573;BME280;59408;51.032;9.410;2022-10-28T01:34:19;99674.28;;;10.65;100.00
71573;BME280;59408;51.032;9.410;2022-10-28T01:36:56;99681.66;;;10.64;100.00
71573;BME280;59408;51.032;9.410;2022-10-28T01:39:30;99687.13;;;10.64;100.00
71573;BME280;59408;51.032;9.410;2022-10-28T01:42:07;99685.53;;;10.63;100.00
71573;BME280;59408;51.032;9.410;2022-10-28T01:44:41;99689.06;;;10.63;100.00
71573;BME280;59408;51.032;9.410;2022-10-28T01:47:14;99678.13;;;10.63;100.00
71573;BME280;59408;51.032;9.410;2022-10-28T01:49:46;99678.13;;;10.63;100.00
71573;BME280;59408;51.032;9.410;2022-10-28T01:52:18;99681.00;;;10.67;100.00
71573;BME280;59408;51.032;9.410;2022-10-28T01:54:49;99673.63;;;10.68;100.00
71573;BME280;59408;51.032;9.410;2022-10-28T01:57:17;99667.03;;;10.69;100.00
71573;BME280;59408;51.032;9.410;2022-10-28T01:59:46;99661.59;;;10.69;100.00
71573;BME280;59408;51.032;9.410;2022-10-28T02:02:16;99649.38;;;10.66;100.00
71573;BME280;59408;51.032;9.410;2022-10-28T02:04:43;99649.25;;;10.62;100.00
71573;BME280;59408;51.032;9.410;2022-10-28T02:07:10;99653.75;;;10.58;100.00
71573;BME280;59408;51.032;9.410;2022-10-28T02:09:46;99655.97;;;10.56;100.00
71573;BME280;59408;51.032;9.410;2022-10-28T02:12:24;99657.94;;;10.56;100.00
71573;BME280;59408;51.032;9.410;2022-10-28T02:15:15;99668.69;;;10.52;100.00
71573;BME280;59408;51.032;9.410;2022-10-28T02:17:53;99667.56;;;10.45;100.00
71573;BME280;59408;51.032;9.410;2022-10-28T02:20:31;99675.56;;;10.41;100.00
71573;BME280;59408;51.032;9.410;2022-10-28T02:23:06;99667.25;;;10.38;100.00
71573;BME280;59408;51.032;9.410;2022-10-28T02:25:40;99664.84;;;10.36;100.00
71573;BME280;59408;51.032;9.410;2022-10-28T02:28:11;99664.84;;;10.36;100.00
71573;BME280;59408;51.032;9.410;2022-10-28T02:30:44;99665.97;;;10.35;100.00
71573;BME280;59408;51.032;9.410;2022-10-28T02:33:16;99675.75;;;10.36;100.00
71573;BME280;59408;51.032;9.410;2022-10-28T02:35:48;99679.59;;;10.52;100.00
71573;BME280;59408;51.032;9.410;2022-10-28T02:38:19;99687.59;;;10.57;100.00
71573;BME280;59408;51.032;9.410;2022-10-28T02:40:51;99697.06;;;10.69;100.00
71573;BME280;59408;51.032;9.410;2022-10-28T02:43:20;99692.88;;;10.71;100.00
71573;BME280;59408;51.032;9.410;2022-10-28T02:45:51;99706.38;;;10.76;100.00
71573;BME280;59408;51.032;9.410;2022-10-28T02:48:26;99713.91;;;10.96;100.00
71573;BME280;59408;51.032;9.410;2022-10-28T02:50:57;99703.78;;;10.97;100.00
71573;BME280;59408;51.032;9.410;2022-10-28T02:53:28;99719.84;;;10.90;100.00
71573;BME280;59408;51.032;9.410;2022-10-28T02:55:59;99686.81;;;10.83;100.00
71573;BME280;59408;51.032;9.410;2022-10-28T02:58:28;99678.44;;;10.79;100.00
71573;BME280;59408;51.032;9.410;2022-10-28T03:00:54;99684.22;;;10.78;100.00
71573;BME280;59408;51.032;9.410;2022-10-28T03:03:22;99662.09;;;10.79;100.00
71573;BME280;59408;51.032;9.410;2022-10-28T03:05:49;99646.19;;;10.81;100.00
71573;BME280;59408;51.032;9.410;2022-10-28T03:08:15;99673.28;;;10.95;100.00
71573;BME280;59408;51.032;9.410;2022-10-28T03:10:42;99684.31;;;11.07;100.00
71573;BME280;59408;51.032;9.410;2022-10-28T03:13:08;99675.00;;;11.08;100.00
71573;BME280;59408;51.032;9.410;2022-10-28T03:15:35;99655.75;;;11.05;100.00
71573;BME280;59408;51.032;9.410;2022-10-28T03:18:02;99651.88;;;11.06;100.00
71573;BME280;59408;51.032;9.410;2022-10-28T03:20:29;99658.63;;;11.08;100.00
71573;BME280;59408;51.032;9.410;2022-10-28T03:22:56;99653.81;;;11.05;100.00
71573;BME280;59408;51.032;9.410;2022-10-28T03:25:23;99645.13;;;11.03;100.00
71573;BME280;59408;51.032;9.410;2022-10-28T03:27:49;99637.31;;;11.02;100.00
71573;BME280;59408;51.032;9.410;2022-10-28T03:30:16;99630.25;;;11.01;100.00
71573;BME280;59408;51.032;9.410;2022-10-28T03:32:43;99613.06;;;11.00;100.00
71573;BME280;59408;51.032;9.410;2022-10-28T03:35:10;99614.31;;;11.03;100.00
71573;BME280;59408;51.032;9.410;2022-10-28T03:37:39;99611.25;;;11.04;100.00
71573;BME280;59408;51.032;9.410;2022-10-28T03:40:07;99605.16;;;11.07;100.00
71573;BME280;59408;51.032;9.410;2022-10-28T03:42:33;99604.50;;;11.10;100.00
71573;BME280;59408;51.032;9.410;2022-10-28T03:45:06;99606.38;;;11.18;100.00
71573;BME280;59408;51.032;9.410;2022-10-28T03:47:33;99604.22;;;11.32;100.00
71573;BME280;59408;51.032;9.410;2022-10-28T03:49:59;99619.59;;;11.46;100.00
71573;BME280;59408;51.032;9.410;2022-10-28T03:52:25;99599.88;;;11.61;100.00
71573;BME280;59408;51.032;9.410;2022-10-28T03:54:53;99614.81;;;11.63;100.00
71573;BME280;59408;51.032;9.410;2022-10-28T03:57:20;99609.19;;;11.60;100.00
71573;BME280;59408;51.032;9.410;2022-10-28T03:59:47;99609.66;;;11.62;100.00
71573;BME280;59408;51.032;9.410;2022-10-28T04:02:13;99612.81;;;11.72;100.00
71573;BME280;59408;51.032;9.410;2022-10-28T04:04:40;99621.03;;;11.72;100.00
71573;BME280;59408;51.032;9.410;2022-10-28T04:07:07;99612.19;;;11.67;100.00
71573;BME280;59408;51.032;9.410;2022-10-28T04:09:33;99607.09;;;11.65;100.00
71573;BME280;59408;51.032;9.410;2022-10-28T04:12:01;99609.03;;;11.65;100.00
71573;BME280;59408;51.032;9.410;2022-10-28T04:14:28;99609.03;;;11.65;100.00
71573;BME280;59408;51.032;9.410;2022-10-28T04:16:54;99602.59;;;11.61;100.00
71573;BME280;59408;51.032;9.410;2022-10-28T04:19:21;99601.31;;;11.58;100.00
71573;BME280;59408;51.032;9.410;2022-10-28T04:21:48;99597.00;;;11.57;100.00
71573;BME280;59408;51.032;9.410;2022-10-28T04:24:14;99599.72;;;11.57;100.00
71573;BME280;59408;51.032;9.410;2022-10-28T04:26:41;99602.94;;;11.59;100.00
71573;BME280;59408;51.032;9.410;2022-10-28T04:29:09;99591.19;;;11.59;100.00
71573;BME280;59408;51.032;9.410;2022-10-28T04:31:35;99587.34;;;11.60;100.00
71573;BME280;59408;51.032;9.410;2022-10-28T04:34:02;99583.00;;;11.59;100.00
71573;BME280;59408;51.032;9.410;2022-10-28T04:36:28;99577.53;;;11.59;100.00
71573;BME280;59408;51.032;9.410;2022-10-28T04:38:55;99575.59;;;11.59;100.00
71573;BME280;59408;51.032;9.410;2022-10-28T04:41:22;99584.50;;;11.56;100.00
71573;BME280;59408;51.032;9.410;2022-10-28T04:43:48;99563.75;;;11.55;100.00
71573;BME280;59408;51.032;9.410;2022-10-28T04:46:16;99576.22;;;11.65;100.00
71573;BME280;59408;51.032;9.410;2022-10-28T04:48:45;99573.44;;;11.73;100.00
71573;BME280;59408;51.032;9.410;2022-10-28T04:51:12;99566.63;;;11.80;100.00
71573;BME280;59408;51.032;9.410;2022-10-28T04:53:39;99571.34;;;11.91;100.00
71573;BME280;59408;51.032;9.410;2022-10-28T04:56:06;99562.06;;;12.04;100.00
71573;BME280;59408;51.032;9.410;2022-10-28T04:58:32;99559.56;;;12.11;100.00
71573;BME280;59408;51.032;9.410;2022-10-28T05:01:04;99540.94;;;12.14;100.00
71573;BME280;59408;51.032;9.410;2022-10-28T05:03:33;99536.41;;;12.18;100.00
71573;BME280;59408;51.032;9.410;2022-10-28T05:06:00;99547.69;;;12.16;100.00
71573;BME280;59408;51.032;9.410;2022-10-28T05:08:26;99552.91;;;12.21;100.00
71573;BME280;59408;51.032;9.410;2022-10-28T05:10:53;99561.03;;;12.30;100.00
71573;BME280;59408;51.032;9.410;2022-10-28T05:13:20;99566.00;;;12.48;100.00
71573;BME280;59408;51.032;9.410;2022-10-28T05:15:47;99551.78;;;12.55;100.00
71573;BME280;59408;51.032;9.410;2022-10-28T05:18:13;99549.03;;;12.55;100.00
71573;BME280;59408;51.032;9.410;2022-10-28T05:20:42;99549.16;;;12.59;100.00
71573;BME280;59408;51.032;9.410;2022-10-28T05:23:08;99549.94;;;12.59;100.00
71573;BME280;59408;51.032;9.410;2022-10-28T05:25:35;99539.94;;;12.63;100.00
71573;BME280;59408;51.032;9.410;2022-10-28T05:28:02;99527.59;;;12.57;100.00
71573;BME280;59408;51.032;9.410;2022-10-28T05:30:28;99536.69;;;12.49;100.00
71573;BME280;59408;51.032;9.410;2022-10-28T05:32:59;99549.22;;;12.38;100.00
71573;BME280;59408;51.032;9.410;2022-10-28T05:35:26;99539.38;;;12.25;100.00
71573;BME280;59408;51.032;9.410;2022-10-28T05:37:54;99539.00;;;12.14;100.00
71573;BME280;59408;51.032;9.410;2022-10-28T05:40:21;99543.84;;;12.08;100.00
71573;BME280;59408;51.032;9.410;2022-10-28T05:42:48;99531.97;;;12.04;100.00
71573;BME280;59408;51.032;9.410;2022-10-28T05:45:15;99535.84;;;12.03;100.00
71573;BME280;59408;51.032;9.410;2022-10-28T05:47:42;99547.72;;;12.07;100.00
71573;BME280;59408;51.032;9.410;2022-10-28T05:50:09;99550.41;;;12.16;100.00
71573;BME280;59408;51.032;9.410;2022-10-28T05:52:36;99557.31;;;12.34;100.00
71573;BME280;59408;51.032;9.410;2022-10-28T05:55:05;99555.47;;;12.38;100.00
71573;BME280;59408;51.032;9.410;2022-10-28T05:57:32;99556.97;;;12.36;100.00
71573;BME280;59408;51.032;9.410;2022-10-28T05:59:59;99565.09;;;12.44;100.00
71573;BME280;59408;51.032;9.410;2022-10-28T06:02:26;99564.25;;;12.32;100.00
71573;BME280;59408;51.032;9.410;2022-10-28T06:04:52;99573.88;;;12.17;100.00
71573;BME280;59408;51.032;9.410;2022-10-28T06:07:19;99574.75;;;12.09;100.00
71573;BME280;59408;51.032;9.410;2022-10-28T06:09:45;99579.34;;;11.96;100.00
71573;BME280;59408;51.032;9.410;2022-10-28T06:12:13;99581.56;;;11.82;100.00
71573;BME280;59408;51.032;9.410;2022-10-28T06:14:40;99581.47;;;11.70;100.00
71573;BME280;59408;51.032;9.410;2022-10-28T06:17:07;99576.41;;;11.60;100.00
71573;BME280;59408;51.032;9.410;2022-10-28T06:19:34;99574.53;;;11.52;100.00
71573;BME280;59408;51.032;9.410;2022-10-28T06:22:00;99574.28;;;11.45;100.00
71573;BME280;59408;51.032;9.410;2022-10-28T06:24:27;99566.47;;;11.34;100.00
71573;BME280;59408;51.032;9.410;2022-10-28T06:26:54;99560.56;;;11.24;100.00
71573;BME280;59408;51.032;9.410;2022-10-28T06:29:21;99556.44;;;11.18;100.00
71573;BME280;59408;51.032;9.410;2022-10-28T06:31:48;99544.88;;;11.12;100.00
71573;BME280;59408;51.032;9.410;2022-10-28T06:34:14;99556.28;;;11.14;100.00
71573;BME280;59408;51.032;9.410;2022-10-28T06:36:41;99548.72;;;11.20;100.00
71573;BME280;59408;51.032;9.410;2022-10-28T06:39:08;99562.78;;;11.30;100.00
71573;BME280;59408;51.032;9.410;2022-10-28T06:41:34;99556.38;;;11.26;100.00
71573;BME280;59408;51.032;9.410;2022-10-28T06:44:01;99553.19;;;11.24;100.00
71573;BME280;59408;51.032;9.410;2022-10-28T06:46:29;99545.63;;;11.21;100.00
71573;BME280;59408;51.032;9.410;2022-10-28T06:48:56;99550.31;;;11.21;100.00
71573;BME280;59408;51.032;9.410;2022-10-28T06:51:24;99535.66;;;11.25;100.00
71573;BME280;59408;51.032;9.410;2022-10-28T06:53:51;99545.72;;;11.33;100.00
71573;BME280;59408;51.032;9.410;2022-10-28T06:56:18;99537.47;;;11.42;100.00
71573;BME280;59408;51.032;9.410;2022-10-28T06:58:48;99538.03;;;11.56;100.00
71573;BME280;59408;51.032;9.410;2022-10-28T07:01:15;99533.41;;;11.69;100.00
71573;BME280;59408;51.032;9.410;2022-10-28T07:03:43;99533.25;;;11.74;100.00
71573;BME280;59408;51.032;9.410;2022-10-28T07:06:09;99540.34;;;11.87;100.00
71573;BME280;59408;51.032;9.410;2022-10-28T07:08:36;99537.53;;;11.96;100.00
71573;BME280;59408;51.032;9.410;2022-10-28T07:11:03;99544.78;;;12.12;100.00
71573;BME280;59408;51.032;9.410;2022-10-28T07:13:30;99547.97;;;12.35;100.00
71573;BME280;59408;51.032;9.410;2022-10-28T07:15:58;99557.69;;;12.45;100.00
71573;BME280;59408;51.032;9.410;2022-10-28T07:18:26;99561.00;;;12.51;100.00
71573;BME280;59408;51.032;9.410;2022-10-28T07:20:57;99570.66;;;12.48;100.00
71573;BME280;59408;51.032;9.410;2022-10-28T07:23:23;99580.81;;;12.47;100.00
71573;BME280;59408;51.032;9.410;2022-10-28T07:25:51;99596.47;;;12.47;100.00
71573;BME280;59408;51.032;9.410;2022-10-28T07:28:19;99589.72;;;12.44;100.00
71573;BME280;59408;51.032;9.410;2022-10-28T07:30:45;99584.00;;;12.49;100.00
71573;BME280;59408;51.032;9.410;2022-10-28T07:33:12;99591.56;;;12.53;100.00
71573;BME280;59408;51.032;9.410;2022-10-28T07:35:38;99596.69;;;12.54;100.00
71573;BME280;59408;51.032;9.410;2022-10-28T07:38:07;99604.91;;;12.54;100.00
71573;BME280;59408;51.032;9.410;2022-10-28T07:40:33;99602.41;;;12.61;100.00
71573;BME280;59408;51.032;9.410;2022-10-28T07:43:00;99592.41;;;12.65;100.00
71573;BME280;59408;51.032;9.410;2022-10-28T07:45:26;99606.44;;;12.76;100.00
71573;BME280;59408;51.032;9.410;2022-10-28T07:47:53;99594.25;;;12.85;100.00
71573;BME280;59408;51.032;9.410;2022-10-28T07:50:20;99591.53;;;12.98;100.00
71573;BME280;59408;51.032;9.410;2022-10-28T07:52:48;99601.22;;;13.07;100.00
71573;BME280;59408;51.032;9.410;2022-10-28T07:55:16;99604.09;;;13.23;100.00
71573;BME280;59408;51.032;9.410;2022-10-28T07:57:42;99616.19;;;13.34;98.17
71573;BME280;59408;51.032;9.410;2022-10-28T08:00:09;99620.66;;;13.51;96.91
71573;BME280;59408;51.032;9.410;2022-10-28T08:02:36;99622.59;;;13.63;97.05
71573;BME280;59408;51.032;9.410;2022-10-28T08:05:04;99619.41;;;13.73;95.22
71573;BME280;59408;51.032;9.410;2022-10-28T08:07:31;99620.53;;;13.84;94.95
71573;BME280;59408;51.032;9.410;2022-10-28T08:10:03;99627.81;;;13.92;94.92
71573;BME280;59408;51.032;9.410;2022-10-28T08:12:32;99621.38;;;14.00;95.16
71573;BME280;59408;51.032;9.410;2022-10-28T08:14:58;99622.72;;;14.06;94.58
71573;BME280;59408;51.032;9.410;2022-10-28T08:17:25;99614.03;;;14.16;95.07
71573;BME280;59408;51.032;9.410;2022-10-28T08:19:51;99615.69;;;14.21;93.77
71573;BME280;59408;51.032;9.410;2022-10-28T08:22:18;99608.91;;;14.30;92.96
71573;BME280;59408;51.032;9.410;2022-10-28T08:24:44;99614.63;;;14.38;92.76
71573;BME280;59408;51.032;9.410;2022-10-28T08:27:11;99609.06;;;14.50;93.37
71573;BME280;59408;51.032;9.410;2022-10-28T08:29:39;99600.81;;;14.62;91.92
71573;BME280;59408;51.032;9.410;2022-10-28T08:32:06;99613.69;;;14.74;90.59
71573;BME280;59408;51.032;9.410;2022-10-28T08:34:33;99602.25;;;14.87;90.88
71573;BME280;59408;51.032;9.410;2022-10-28T08:37:04;99599.44;;;14.99;89.35
71573;BME280;59408;51.032;9.410;2022-10-28T08:39:31;99603.31;;;15.14;87.67
71573;BME280;59408;51.032;9.410;2022-10-28T08:42:04;99602.94;;;15.31;87.06
71573;BME280;59408;51.032;9.410;2022-10-28T08:45:02;99602.22;;;15.50;86.76
71573;BME280;59408;51.032;9.410;2022-10-28T08:47:45;99599.81;;;15.64;86.72
71573;BME280;59408;51.032;9.410;2022-10-28T08:50:15;99600.34;;;15.70;85.47
71573;BME280;59408;51.032;9.410;2022-10-28T08:52:46;99596.88;;;15.73;84.97
71573;BME280;59408;51.032;9.410;2022-10-28T08:55:15;99598.97;;;15.79;86.02
71573;BME280;59408;51.032;9.410;2022-10-28T08:57:47;99586.69;;;15.93;85.03
71573;BME280;59408;51.032;9.410;2022-10-28T09:00:21;99596.47;;;16.09;84.44
71573;BME280;59408;51.032;9.410;2022-10-28T09:02:55;99593.94;;;16.20;82.77
71573;BME280;59408;51.032;9.410;2022-10-28T09:05:25;99591.34;;;16.27;82.60
71573;BME280;59408;51.032;9.410;2022-10-28T09:07:53;99597.06;;;16.38;82.16
71573;BME280;59408;51.032;9.410;2022-10-28T09:10:48;99582.88;;;16.58;82.81
71573;BME280;59408;51.032;9.410;2022-10-28T09:13:25;99591.63;;;16.83;81.23
71573;BME280;59408;51.032;9.410;2022-10-28T09:15:59;99589.28;;;17.08;81.44
71573;BME280;59408;51.032;9.410;2022-10-28T09:18:47;99588.09;;;17.32;78.19
71573;BME280;59408;51.032;9.410;2022-10-28T09:21:19;99584.94;;;17.56;77.71
71573;BME280;59408;51.032;9.410;2022-10-28T09:23:51;99586.81;;;17.75;77.82
71573;BME280;59408;51.032;9.410;2022-10-28T09:26:35;99594.63;;;18.03;75.85
71573;BME280;59408;51.032;9.410;2022-10-28T09:29:16;99590.63;;;18.27;74.84
71573;BME280;59408;51.032;9.410;2022-10-28T09:31:51;99586.88;;;18.46;74.22
71573;BME280;59408;51.032;9.410;2022-10-28T09:34:28;99604.06;;;18.62;72.86
71573;BME280;59408;51.032;9.410;2022-10-28T09:37:00;99600.97;;;18.70;74.10
71573;BME280;59408;51.032;9.410;2022-10-28T09:39:33;99595.56;;;18.81;71.26
71573;BME280;59408;51.032;9.410;2022-10-28T09:42:02;99598.50;;;18.99;71.71
71573;BME280;59408;51.032;9.410;2022-10-28T09:44:37;99588.75;;;19.15;69.10
71573;BME280;59408;51.032;9.410;2022-10-28T09:47:13;99587.84;;;19.45;69.47
71573;BME280;59408;51.032;9.410;2022-10-28T09:49:41;99585.59;;;19.65;65.62
71573;BME280;59408;51.032;9.410;2022-10-28T09:52:13;99589.38;;;20.08;66.43
71573;BME280;59408;51.032;9.410;2022-10-28T09:54:47;99588.31;;;20.34;66.09
71573;BME280;59408;51.032;9.410;2022-10-28T09:57:15;99587.56;;;20.47;63.35
71573;BME280;59408;51.032;9.410;2022-10-28T09:59:43;99592.78;;;20.67;62.34
71573;BME280;59408;51.032;9.410;2022-10-28T10:02:22;99588.03;;;20.78;62.03
71573;BME280;59408;51.032;9.410;2022-10-28T10:04:50;99591.22;;;20.90;62.09
71573;BME280;59408;51.032;9.410;2022-10-28T10:07:24;99588.09;;;21.10;61.74
71573;BME280;59408;51.032;9.410;2022-10-28T10:09:53;99586.09;;;21.31;60.87
71573;BME280;59408;51.032;9.410;2022-10-28T10:12:20;99588.88;;;21.46;60.34
71573;BME280;59408;51.032;9.410;2022-10-28T10:14:49;99597.19;;;21.56;57.88
71573;BME280;59408;51.032;9.410;2022-10-28T10:17:22;99593.59;;;21.73;57.13
71573;BME280;59408;51.032;9.410;2022-10-28T10:19:59;99585.56;;;22.07;56.19
71573;BME280;59408;51.032;9.410;2022-10-28T10:22:28;99588.69;;;22.17;56.70
71573;BME280;59408;51.032;9.410;2022-10-28T10:24:55;99581.50;;;22.26;57.29
71573;BME280;59408;51.032;9.410;2022-10-28T10:27:24;99575.06;;;22.50;58.48
71573;BME280;59408;51.032;9.410;2022-10-28T10:29:52;99579.00;;;22.57;55.40
71573;BME280;59408;51.032;9.410;2022-10-28T10:32:24;99572.69;;;22.45;55.46
71573;BME280;59408;51.032;9.410;2022-10-28T10:34:57;99576.66;;;22.48;55.88
71573;BME280;59408;51.032;9.410;2022-10-28T10:37:25;99581.44;;;22.40;56.26
71573;BME280;59408;51.032;9.410;2022-10-28T10:40:03;99576.75;;;22.30;54.31
71573;BME280;59408;51.032;9.410;2022-10-28T10:42:30;99576.34;;;22.25;56.25
71573;BME280;59408;51.032;9.410;2022-10-28T10:45:00;99580.63;;;22.47;56.61
71573;BME280;59408;51.032;9.410;2022-10-28T10:47:28;99566.72;;;22.47;54.94
71573;BME280;59408;51.032;9.410;2022-10-28T10:50:19;99569.94;;;22.35;55.64
71573;BME280;59408;51.032;9.410;2022-10-28T10:52:48;99578.66;;;22.40;56.46
71573;BME280;59408;51.032;9.410;2022-10-28T10:55:23;99567.91;;;22.46;55.86
71573;BME280;59408;51.032;9.410;2022-10-28T10:57:51;99566.69;;;22.58;56.09
71573;BME280;59408;51.032;9.410;2022-10-28T11:00:19;99566.19;;;22.70;55.26
71573;BME280;59408;51.032;9.410;2022-10-28T11:02:48;99561.22;;;22.33;55.58
71573;BME280;59408;51.032;9.410;2022-10-28T11:05:22;99547.72;;;22.38;57.62
71573;BME280;59408;51.032;9.410;2022-10-28T11:08:01;99550.44;;;22.49;56.23
71573;BME280;59408;51.032;9.410;2022-10-28T11:10:29;99550.38;;;22.60;55.66
71573;BME280;59408;51.032;9.410;2022-10-28T11:13:00;99544.88;;;22.42;56.73
71573;BME280;59408;51.032;9.410;2022-10-28T11:15:28;99545.91;;;22.73;57.12
71573;BME280;59408;51.032;9.410;2022-10-28T11:18:01;99554.22;;;22.80;55.13
71573;BME280;59408;51.032;9.410;2022-10-28T11:20:38;99550.97;;;22.88;55.20
71573;BME280;59408;51.032;9.410;2022-10-28T11:23:24;99552.09;;;22.95;56.00
71573;BME280;59408;51.032;9.410;2022-10-28T11:25:57;99550.06;;;23.02;55.11
71573;BME280;59408;51.032;9.410;2022-10-28T11:28:37;99548.56;;;22.91;55.21
71573;BME280;59408;51.032;9.410;2022-10-28T11:31:22;99554.13;;;22.91;55.87
71573;BME280;59408;51.032;9.410;2022-10-28T11:34:05;99539.38;;;22.97;55.03
71573;BME280;59408;51.032;9.410;2022-10-28T11:36:38;99531.22;;;22.72;56.89
71573;BME280;59408;51.032;9.410;2022-10-28T11:39:19;99534.63;;;22.32;56.72
71573;BME280;59408;51.032;9.410;2022-10-28T11:41:58;99531.13;;;22.21;58.01
71573;BME280;59408;51.032;9.410;2022-10-28T11:44:34;99533.59;;;22.01;58.60
71573;BME280;59408;51.032;9.410;2022-10-28T11:47:23;99533.59;;;22.01;57.08
71573;BME280;59408;51.032;9.410;2022-10-28T11:50:17;99524.84;;;22.06;56.78
71573;BME280;59408;51.032;9.410;2022-10-28T11:55:56;99531.19;;;22.06;56.68
71573;BME280;59408;51.032;9.410;2022-10-28T11:58:36;99525.53;;;22.28;56.24
71573;BME280;59408;51.032;9.410;2022-10-28T12:01:35;99518.97;;;22.63;54.16
71573;BME280;59408;51.032;9.410;2022-10-28T12:04:26;99520.81;;;22.83;54.59
71573;BME280;59408;51.032;9.410;2022-10-28T12:07:17;99504.34;;;23.03;53.30
71573;BME280;59408;51.032;9.410;2022-10-28T12:10:00;99495.63;;;23.01;53.10
71573;BME280;59408;51.032;9.410;2022-10-28T12:12:36;99508.66;;;23.08;53.85
71573;BME280;59408;51.032;9.410;2022-10-28T12:15:16;99494.50;;;22.92;51.52
71573;BME280;59408;51.032;9.410;2022-10-28T12:17:47;99497.16;;;23.06;50.54
71573;BME280;59408;51.032;9.410;2022-10-28T12:20:19;99485.72;;;22.97;50.22
71573;BME280;59408;51.032;9.410;2022-10-28T12:22:52;99484.38;;;23.12;49.56
71573;BME280;59408;51.032;9.410;2022-10-28T12:25:23;99478.22;;;22.90;48.50
71573;BME280;59408;51.032;9.410;2022-10-28T12:27:54;99470.28;;;22.88;48.87
71573;BME280;59408;51.032;9.410;2022-10-28T12:30:23;99469.06;;;22.93;48.71
71573;BME280;59408;51.032;9.410;2022-10-28T12:32:54;99469.09;;;22.86;49.48
71573;BME280;59408;51.032;9.410;2022-10-28T12:35:24;99475.09;;;22.84;49.21
71573;BME280;59408;51.032;9.410;2022-10-28T12:37:58;99468.38;;;22.78;50.28
71573;BME280;59408;51.032;9.410;2022-10-28T12:40:30;99476.00;;;22.71;49.85
71573;BME280;59408;51.032;9.410;2022-10-28T12:43:04;99473.66;;;22.66;49.13
71573;BME280;59408;51.032;9.410;2022-10-28T12:45:36;99476.81;;;22.68;48.80
71573;BME280;59408;51.032;9.410;2022-10-28T12:48:12;99478.38;;;22.72;48.60
71573;BME280;59408;51.032;9.410;2022-10-28T12:50:47;99474.97;;;22.47;48.81
71573;BME280;59408;51.032;9.410;2022-10-28T12:53:23;99482.13;;;22.41;50.31
71573;BME280;59408;51.032;9.410;2022-10-28T12:55:56;99486.28;;;22.15;49.44
71573;BME280;59408;51.032;9.410;2022-10-28T12:58:29;99479.22;;;22.00;50.20
71573;BME280;59408;51.032;9.410;2022-10-28T13:00:59;99484.44;;;21.87;50.13
71573;BME280;59408;51.032;9.410;2022-10-28T13:03:27;99478.09;;;21.90;50.98
71573;BME280;59408;51.032;9.410;2022-10-28T13:06:05;99468.97;;;21.86;51.34
71573;BME280;59408;51.032;9.410;2022-10-28T13:09:02;99478.53;;;21.67;52.11
71573;BME280;59408;51.032;9.410;2022-10-28T13:11:43;99472.69;;;21.44;51.62
71573;BME280;59408;51.032;9.410;2022-10-28T13:14:25;99481.00;;;21.40;52.55
71573;BME280;59408;51.032;9.410;2022-10-28T13:17:17;99467.56;;;21.28;52.41
71573;BME280;59408;51.032;9.410;2022-10-28T13:19:57;99466.38;;;21.29;53.67